Tuesday, January 17, 2017, 3:49 AM EST

KLKU, Louisa, Louisa County Airport/freeman Field

Location: Louisa, VA, United States Lat: 38.01
Local Time: 3:49 AM EST ( 8:49 GMT) Lon: -77.97
Time Zone: US/Eastern Elev: 492 ft

Show me the last for .
Show Decoded

2017-01-17 03:35 METAR KLKU 170835Z AUTO 00000KT 10SM OVC090 06/06 A3021 RMK AO2 =
2017-01-17 03:15 METAR KLKU 170815Z AUTO 00000KT 10SM BKN090 06/06 A3021 RMK AO2 =
2017-01-17 02:55 METAR KLKU 170755Z AUTO 18003KT 7SM SCT090 06/06 A3022 RMK AO2 =
2017-01-17 02:35 METAR KLKU 170735Z AUTO 18003KT 7SM SCT004 06/06 A3023 RMK AO2 =
2017-01-17 02:15 METAR KLKU 170715Z AUTO 20003KT 5SM BR BKN004 06/06 A3024 RMK AO2 =
2017-01-17 01:55 METAR KLKU 170655Z AUTO 17003KT 7SM OVC004 06/06 A3023 RMK AO2 =
2017-01-17 01:35 METAR KLKU 170635Z AUTO 19003KT 7SM SCT004 BKN100 06/06 A3023 RMK AO2 =
2017-01-17 01:15 METAR KLKU 170615Z AUTO 00000KT 10SM BKN090 06/06 A3023 RMK AO2 =
2017-01-17 00:55 METAR KLKU 170555Z AUTO 19003KT 10SM SCT090 06/06 A3024 RMK AO2 =
2017-01-17 00:35 METAR KLKU 170535Z AUTO 00000KT 10SM CLR 06/06 A3025 RMK AO2 =
2017-01-17 00:15 METAR KLKU 170515Z AUTO 17003KT 10SM CLR 06/06 A3026 RMK AO2 =
2017-01-16 23:55 METAR KLKU 170455Z AUTO 00000KT 10SM CLR 06/06 A3027 RMK AO2 =
2017-01-16 23:35 METAR KLKU 170435Z AUTO 00000KT 10SM CLR 07/06 A3028 RMK AO2 =
2017-01-16 23:15 METAR KLKU 170415Z AUTO 00000KT 10SM SCT060 07/06 A3028 RMK AO2 =
2017-01-16 22:55 METAR KLKU 170355Z AUTO 18003KT 10SM SCT060 07/06 A3028 RMK AO2 =
2017-01-16 22:35 METAR KLKU 170335Z AUTO 00000KT 10SM BKN060 OVC075 07/06 A3029 RMK AO2 =
2017-01-16 22:15 METAR KLKU 170315Z AUTO 00000KT 10SM BKN060 OVC075 07/06 A3030 RMK AO2 =
2017-01-16 21:55 METAR KLKU 170255Z AUTO 17003KT 10SM SCT017 BKN060 07/06 A3031 RMK AO2 =
2017-01-16 21:35 METAR KLKU 170235Z AUTO 19003KT 10SM OVC017 07/06 A3032 RMK AO2 =
2017-01-16 21:15 METAR KLKU 170215Z AUTO 17003KT 10SM OVC017 07/06 A3032 RMK AO2 =
2017-01-16 20:55 METAR KLKU 170155Z AUTO 00000KT 10SM OVC017 07/06 A3033 RMK AO2 =
2017-01-16 20:35 METAR KLKU 170135Z AUTO 00000KT 10SM OVC017 07/06 A3033 RMK AO2 =
2017-01-16 20:15 METAR KLKU 170115Z AUTO 00000KT 10SM BKN017 07/06 A3033 RMK AO2 =
2017-01-16 19:55 METAR KLKU 170055Z AUTO 00000KT 10SM SCT019 BKN070 07/06 A3033 RMK AO2 =
2017-01-16 19:35 METAR KLKU 170035Z AUTO 00000KT 10SM OVC021 07/06 A3033 RMK AO2 =
2017-01-16 19:15 METAR KLKU 170015Z AUTO 16003KT 10SM BKN007 OVC021 07/06 A3033 RMK AO2 =
2017-01-16 18:55 METAR KLKU 162355Z AUTO 00000KT 10SM OVC007 07/06 A3033 RMK AO2 =
2017-01-16 18:35 METAR KLKU 162335Z AUTO 00000KT 10SM OVC007 07/06 A3034 RMK AO2 =
2017-01-16 18:15 METAR KLKU 162315Z AUTO 00000KT 10SM OVC007 07/06 A3034 RMK AO2 =
2017-01-16 17:55 METAR KLKU 162255Z AUTO 00000KT 10SM OVC009 08/06 A3034 RMK AO2 =
2017-01-16 17:35 METAR KLKU 162235Z AUTO 00000KT 10SM OVC009 08/06 A3034 RMK AO2 =
2017-01-16 17:15 METAR KLKU 162215Z AUTO 00000KT 10SM OVC009 08/06 A3034 RMK AO2 =
2017-01-16 16:55 METAR KLKU 162155Z AUTO 00000KT 7SM OVC009 08/06 A3035 RMK AO2 =
2017-01-16 16:35 METAR KLKU 162135Z AUTO 17003KT 10SM OVC009 08/06 A3035 RMK AO2 =
2017-01-16 16:15 METAR KLKU 162115Z AUTO 00000KT 10SM OVC009 08/06 A3035 RMK AO2 =
2017-01-16 15:55 METAR KLKU 162055Z AUTO 00000KT 10SM OVC009 08/06 A3036 RMK AO2 =
2017-01-16 15:35 METAR KLKU 162035Z AUTO 00000KT 10SM OVC009 08/06 A3035 RMK AO2 =
2017-01-16 15:15 METAR KLKU 162015Z AUTO 20004KT 10SM OVC009 08/06 A3035 RMK AO2 =
2017-01-16 14:55 METAR KLKU 161955Z AUTO 19004KT 10SM OVC009 08/06 A3035 RMK AO2 =
2017-01-16 14:35 METAR KLKU 161935Z AUTO 20003KT 10SM OVC009 08/06 A3035 RMK AO2 =
2017-01-16 14:15 METAR KLKU 161915Z AUTO 00000KT 10SM OVC009 08/06 A3035 RMK AO2 =
2017-01-16 13:55 METAR KLKU 161855Z AUTO 19004KT 10SM OVC009 08/06 A3036 RMK AO2 =
2017-01-16 13:35 METAR KLKU 161835Z AUTO 17003KT 10SM OVC009 07/06 A3037 RMK AO2 =
2017-01-16 13:15 METAR KLKU 161815Z AUTO 17003KT 10SM -DZ OVC009 07/06 A3037 RMK AO2 =
2017-01-16 12:55 METAR KLKU 161755Z AUTO 17003KT 10SM OVC007 07/06 A3038 RMK AO2 =
2017-01-16 12:35 METAR KLKU 161735Z AUTO 00000KT 10SM OVC007 07/06 A3039 RMK AO2 =
2017-01-16 12:15 METAR KLKU 161715Z AUTO 19003KT 10SM OVC007 07/06 A3041 RMK AO2 =
2017-01-16 11:55 METAR KLKU 161655Z AUTO 19003KT 10SM OVC007 07/06 A3042 RMK AO2 =
2017-01-16 11:35 METAR KLKU 161635Z AUTO 18003KT 10SM BKN007 OVC012 07/06 A3043 RMK AO2 =
2017-01-16 11:15 METAR KLKU 161615Z AUTO 00000KT 5SM BR BKN007 OVC012 07/06 A3044 RMK AO2 =
2017-01-16 10:55 METAR KLKU 161555Z AUTO 16005KT 4SM BR OVC007 06/06 A3045 RMK AO2 =
2017-01-16 10:35 METAR KLKU 161535Z AUTO 18003KT 2 1/2SM BR BKN005 BKN010 OVC015 06/06 A3046 RMK
                 AO2 =
2017-01-16 10:15 METAR KLKU 161515Z AUTO 17003KT 2 1/2SM BR BKN005 OVC009 06/06 A3046 RMK AO2 =
2017-01-16 09:55 METAR KLKU 161455Z AUTO 20003KT 3SM BR OVC005 06/06 A3046 RMK AO2 P0001 =
2017-01-16 09:35 METAR KLKU 161435Z AUTO 00000KT 2SM BR OVC005 06/05 A3045 RMK AO2 P0001 =
2017-01-16 09:15 METAR KLKU 161415Z AUTO 00000KT 2SM BR BKN009 BKN025 OVC035 06/05 A3044 RMK AO2
                 =
2017-01-16 08:55 METAR KLKU 161355Z AUTO 00000KT 10SM SCT005 BKN037 OVC043 06/05 A3043 RMK AO2 =
2017-01-16 08:35 METAR KLKU 161335Z AUTO 16003KT 2 1/2SM BR OVC005 06/05 A3043 RMK AO2 =
2017-01-16 08:15 METAR KLKU 161315Z AUTO 00000KT 4SM BR BKN007 OVC019 06/05 A3043 RMK AO2 =
2017-01-16 07:55 METAR KLKU 161255Z AUTO 00000KT 5SM BR SCT004 BKN011 OVC019 06/05 A3043 RMK AO2
                 =
2017-01-16 07:35 METAR KLKU 161235Z AUTO 00000KT 4SM BR BKN004 BKN011 OVC021 06/05 A3042 RMK AO2
                 =
2017-01-16 07:15 METAR KLKU 161215Z AUTO 00000KT 5SM BR SCT004 OVC021 06/05 A3042 RMK AO2 =
2017-01-16 06:50 METAR KLKU 161150Z AUTO 00000KT 7SM OVC021 06/06 A3042 RMK AO2 =
2017-01-16 06:35 METAR KLKU 161135Z AUTO 00000KT 7SM SCT014 OVC021 06/06 A3043 RMK AO2 =
2017-01-16 06:15 METAR KLKU 161115Z AUTO 00000KT 7SM BKN005 OVC011 06/06 A3041 RMK AO2 =
2017-01-16 05:55 METAR KLKU 161055Z AUTO 00000KT 4SM DZ OVC003 06/06 A3041 RMK AO2 =
2017-01-16 05:35 METAR KLKU 161035Z AUTO 00000KT 4SM BR BKN003 OVC022 06/06 A3040 RMK AO2 =
2017-01-16 05:15 METAR KLKU 161015Z AUTO 00000KT 4SM BR BKN003 OVC024 06/06 A3040 RMK AO2 =
2017-01-16 04:55 METAR KLKU 160955Z AUTO 00000KT 4SM -DZ SCT003 OVC024 06/06 A3040 RMK AO2 P0002
                 =
2017-01-16 04:35 METAR KLKU 160935Z AUTO 00000KT 3SM -RA OVC024 06/06 A3040 RMK AO2 P0001 =
2017-01-16 04:15 METAR KLKU 160915Z AUTO 00000KT 5SM -DZ OVC026 06/06 A3041 RMK AO2 P0001 =
2017-01-16 03:55 METAR KLKU 160855Z AUTO 00000KT 5SM DZ OVC026 06/06 A3040 RMK AO2 P0002 =

Support USWX by starting your Amazon purchase here.